KLOZ/LOZ METAR and TAF weather

Enter ICAO airport designator
Station Type Date Time Source
KLOZ METAR 2019/08/19 01:53 UTC NOAA

KLOZ 190153Z AUTO 00000KT 10SM CLR 26/20 A3001 RMK AO2 SLP147 T02560200


Station Type Date Time Source
KLOZ Decoded METAR 2019/08/19 01:53 UTC NOAA

Station name not available
Aug 18, 2019 - 09:53 PM EDT / 2019.08.19 0153 UTC
Wind: Calm:0
Visibility: 10 mile(s):0
Sky conditions: clear
Temperature: 78.1 F (25.6 C)
Dew Point: 68.0 F (20.0 C)
Relative Humidity: 71%
Pressure (altimeter): 30.01 in. Hg (1016 hPa)
ob: KLOZ 190153Z AUTO 00000KT 10SM CLR 26/20 A3001 RMK AO2 SLP147 T02560200
cycle: 2

Station Type Date Time Source
KLOZ TAF 2019/08/18 18:39 UTC NOAA

TAF KLOZ 181737Z 1818/1918 21007KT P6SM FEW040
FM182300 VRB03KT P6SM SCT250

Example: see airport list